Airfield :
LOGIN :

Register | Disclaimer

   EN    FR    IT 

 










Legend :    VFR   Marginal VFR   IFR   Intensive IFR   Very Intensive IFR
Visi :
Ceiling :
>= 8 km
>= 3000ft
5 to 8 km
1000 to 3000 ft
1500m to 5 km
500 to 1000 ft
800 to 1500m
200 to 500 ft
< 800m
< 200 ft
Symbols :   Thunderstorms  Fog  Heavy snow  Heavy precipitations  Wind > 20 kt
SIGMETs :     Misc.  Thunderstorms  Icing  Turbulence  Mountain Waves  Volcanic Ashes







- Airport Elevation : 233 ft
- IATA code : REU


LERS - Reus Tarragona

CURRENT METAR :
  • 181730Z VRB02KT CAVOK 11/08 Q1020

EXPIRED METARs :
  • 181700Z 23003KT CAVOK 12/08 Q1020
  • 181630Z 20005KT 160V230 CAVOK 13/07 Q1020
  • 181600Z 19008KT 160V230 CAVOK 14/07 Q1020
  • 181530Z 18009KT 140V220 CAVOK 15/06 Q1020
  • 181500Z 19008KT 150V230 CAVOK 15/06 Q1020

TAF TAF LERS
Valid from the 18 at 15:00 until the 19 at 15:00 UTC


181400Z 1815/1915 25006KT 9999 FEW030 TX17/1913Z TN02/1907Z
No reported NOTAMs for that airfield.



MET'MAP, your aeronautical weather chart ! - Copyright ORBIFLY December 2007 - Disclaimer

ORBIFLY MET'MAP TEAM :

Programming & Development : Alexandra Zaïnal
Concept & Development : Baudouin d'Aumeries
Co-Development & Prog : Marc-Olivier Méhu
Technical & hardware support : Manuel Goepfert

Contact : metmap@orbifly.com




SOURCES & CREDITS :

   NOAA